Pagrindinis puslapis
METAR-TAF:

METAR-TAF

Oro uostai :

Florø, Norvegija

platuma: 61-35N, ilguma: 005-02E, Aukštis: 0 m

Dabartinis oras

Ataskaita buvo paskelbta 35 minutes, ne 12:20 UTC
Vėjas 7 kt iš Rytų
Temperatūra 4°C
Drėgmė 93%
Slėgis 1002 hPa
Matomumas 10 km arba daugiau
Mažai debesys ne aukštis 700 ft
Išsisklaidę debesys ne aukštis 2300 ft

METAR: ENFL 191220Z 09007KT 9999 FEW007 SCT023 04/03 Q1002

Laikas: 13:55 (12:55 UTC)

Prognozė

Ataskaita buvo paskelbta 1 valandą ir 55 minutes, ne 11:00 UTC
Prognozė galioja nuo 19 metu 12 UTC su 19 metu 21 UTC
Vėjas 8 kt iš Rytų
Matomumas 10 km arba daugiau
Išsisklaidę debesys ne aukštis 1200 ft, aukštai iškilę kamuoliniai debesys.
Su prošvaistėmis ne aukštis 2000 ft
lietus
Tapsmas
nuo 19 metu 19 UTC su 19 metu 21 UTC
Vėjas 18 kt iš Pietryčių

TAF: ENFL 191100Z 1912/1921 08008KT 9999 -SHRA SCT012TCU BKN020 BECMG 1919/1921 14018KT

Orai ataskaitas ir orų prognozės (METAR, TAF).

turimą stotys yra geltonos ir raudonos taškus žemėlapyje.

Perkelti pele per norėdami pamatyti stoties vardą.

Tada spustelėkite, norėdami matyti oro stebėjimo ir prognozės.

Norėdami pakeisti žemėlapį: spustelėkite ant žalios mygtukų su juodo kryžiaus žemyn,; žalią mygtuką su brūkšneliu, jei norite nutolinti; arba žalių rodyklių gretimoms žemėlapius.


METAR-TAF: